Flight Track Log - Related Links

Times and Time Zones

All times are in EDT time to prevent confusion due to time zone crossing. See the C-GILV flight status page for this flight to view local times or setup timezone preferences in your user account.

Time Position Orientation Groundspeed Altitude Reporting Facility
EDT Latitude Longitude Course Direction KTS MPH feet Rate Location/Type
Fri 01:24:43 PM 47.5333 -65.6167 150° Southeast 120 138 4,700  Level Moncton Center
Fri 01:25:43 PM 47.5000 -65.5833 146° Southeast 130 150 5,600 950 Climbing Moncton Center
Fri 01:26:43 PM 47.4667 -65.5667 161° South 130 150 6,600 750 Climbing Moncton Center
Fri 01:27:43 PM 47.4333 -65.5333 146° Southeast 140 161 7,100 300 Climbing Moncton Center
Fri 01:28:00 PM 47.2935 -65.4533 150° Southeast  Level FlightAware Approximate
Fri 01:28:43 PM 47.3833 -65.4833 146° Southeast 170 196 7,200  Level Moncton Center
Fri 01:29:00 PM 47.2514 -65.4178 150° Southeast  Level FlightAware Approximate
Fri 01:29:43 PM 47.3333 -65.4667 167° South 190 219 7,100  Level Moncton Center
Fri 01:30:00 PM 47.2094 -65.3824 150° Southeast  Level FlightAware Approximate
Fri 01:30:43 PM 47.3000 -65.4167 135° Southeast 190 219 7,100  Level Moncton Center
Fri 01:31:43 PM 47.2500 -65.3833 156° South 180 207 7,100  Level Moncton Center
Fri 01:32:43 PM 47.2000 -65.3333 146° Southeast 180 207 7,100 -50 Level Moncton Center
Fri 01:33:43 PM 47.1500 -65.3000 156° South 180 207 7,000 -50 Descending Moncton Center
Fri 01:34:43 PM 47.1167 -65.2833 161° South 180 207 7,000  Level Moncton Center
Fri 01:35:43 PM 47.0667 -65.2333 146° Southeast 180 207 7,000  Level Moncton Center
Fri 01:36:43 PM 47.0167 -65.1833 146° Southeast 180 207 7,000  Level Moncton Center
Fri 01:37:43 PM 46.9833 -65.1500 146° Southeast 180 207 7,000  Level Moncton Center
Fri 01:38:43 PM 46.9333 -65.1000 146° Southeast 180 207 7,000  Level Moncton Center
Fri 01:39:43 PM 46.8833 -65.0833 167° South 180 207 7,000  Level Moncton Center
Fri 01:40:43 PM 46.8500 -65.0333 134° Southeast 180 207 7,000  Level Moncton Center
Fri 01:41:43 PM 46.8000 -65.0000 155° Southeast 180 207 7,000  Level Moncton Center
Fri 01:42:43 PM 46.7500 -64.9667 155° Southeast 180 207 7,000  Level Moncton Center
Fri 01:43:43 PM 46.7167 -64.9333 146° Southeast 180 207 7,000  Level Moncton Center
Fri 01:44:43 PM 46.6667 -64.8833 146° Southeast 190 219 7,000  Level Moncton Center
Fri 01:45:43 PM 46.6167 -64.8667 167° South 190 219 7,000  Level Moncton Center
Fri 01:46:43 PM 46.5833 -64.8167 134° Southeast 190 219 7,000  Level Moncton Center
Fri 01:47:43 PM 46.5333 -64.7667 145° Southeast 190 219 7,000  Level Moncton Center
Fri 01:48:43 PM 46.5000 -64.7333 145° Southeast 190 219 7,000  Level Moncton Center
Fri 01:49:43 PM 46.4500 -64.6833 145° Southeast 190 219 7,000  Level Moncton Center
Fri 01:50:43 PM 46.4000 -64.6333 145° Southeast 190 219 7,000  Level Moncton Center
Fri 01:51:43 PM 46.3667 -64.6167 161° South 190 219 7,000  Level Moncton Center
Fri 01:52:43 PM 46.3167 -64.5667 145° Southeast 190 219 7,000  Level Moncton Center
Fri 01:53:43 PM 46.2833 -64.5500 161° South 180 207 7,000  Level Moncton Center
Fri 01:54:43 PM 46.2333 -64.5000 145° Southeast 190 219 7,000  Level Moncton Center
Fri 01:55:43 PM 46.1833 -64.4500 145° Southeast 190 219 7,000  Level Moncton Center
Fri 01:56:43 PM 46.1500 -64.4000 134° Southeast 190 219 7,000  Level Moncton Center
Fri 01:57:43 PM 46.1000 -64.3667 155° Southeast 180 207 7,000  Level Moncton Center
Fri 01:58:43 PM 46.0667 -64.3167 134° Southeast 180 207 7,000  Level Moncton Center
Fri 01:59:43 PM 46.0167 -64.2833 155° Southeast 180 207 7,000  Level Moncton Center
Fri 02:00:43 PM 45.9833 -64.2500 145° Southeast 180 207 7,000  Level Moncton Center
Fri 02:01:43 PM 45.9333 -64.2000 145° Southeast 180 207 7,000  Level Moncton Center
Fri 02:02:43 PM 45.8833 -64.1500 145° Southeast 180 207 7,000  Level Moncton Center
Fri 02:03:43 PM 45.8500 -64.1333 161° South 180 207 7,000  Level Moncton Center
Fri 02:04:43 PM 45.8000 -64.0833 145° Southeast 180 207 7,000  Level Moncton Center
Fri 02:05:43 PM 45.7333 -64.0667 170° South 180 207 7,000  Level Moncton Center
Fri 02:06:43 PM 45.7000 -64.0167 134° Southeast 180 207 7,000  Level Moncton Center
Fri 02:07:43 PM 45.6500 -63.9833 155° Southeast 180 207 7,000  Level Moncton Center
Fri 02:08:43 PM 45.6167 -63.9500 145° Southeast 180 207 7,000  Level Moncton Center
Fri 02:09:43 PM 45.5667 -63.9167 155° Southeast 180 207 7,000 -250 Level Moncton Center
Fri 02:10:43 PM 45.5167 -63.8667 145° Southeast 190 219 6,500 -600 Descending Moncton Center
Fri 02:11:43 PM 45.4667 -63.8167 145° Southeast 190 219 5,800 -750 Descending Moncton Center
Fri 02:12:43 PM 45.4333 -63.8000 161° South 200 230 5,000 -900 Descending Moncton Center
Fri 02:13:43 PM 45.3833 -63.7500 145° Southeast 200 230 4,000 -850 Descending Moncton Center
Fri 02:14:43 PM 45.3333 -63.7000 145° Southeast 200 230 3,300 -650 Descending Moncton Center
Fri 02:15:43 PM 45.2833 -63.6833 167° South 200 230 2,700 -200 Descending Moncton Center
Fri 02:16:43 PM 45.2333 -63.6667 167° South 170 196 2,900 150 Climbing Moncton Center
Fri 02:17:43 PM 45.2000 -63.6167 133° Southeast 170 196 3,000 50 Climbing Moncton Center
Fri 02:18:43 PM 45.1500 -63.5833 155° Southeast 180 207 3,000 -400 Level Moncton Center
Fri 02:19:43 PM 45.1167 -63.5500 145° Southeast 190 219 2,200 -600 Descending Moncton Center
Fri 02:20:43 PM 45.0667 -63.5167 155° Southeast 190 219 1,800 -150 Descending Moncton Center
Fri 02:21:43 PM 45.0167 -63.5167 180° South 180 207 1,900  Climbing Moncton Center
Fri 02:22:43 PM 44.9667 -63.5000 167° South 180 207 1,800 -250 Descending Moncton Center
Fri 02:23:43 PM 44.9167 -63.4833 167° South 180 207 1,400 -300 Descending Moncton Center
Fri 02:24:43 PM 44.8833 -63.4500 145° Southeast 140 161 1,200 -400 Descending Moncton Center
Fri 02:25:43 PM 44.8667 -63.4833 235° Southwest 110 127 600 -350 Descending Moncton Center
Fri 02:26:43 PM 44.8833 -63.5000 325° Northwest 90 104 500 -100 Descending Moncton Center

Login

Don't have an account? Register now (free) for customized features, flight alerts, and more!